»·PEaware :: DAL9874 KTPA-KATL

DAL9874 :: KTPA-KATL

FLIGHT INFORMATION

Flight Status: Arrived
Operator:
Delta Air Lines
More flights by this operator :: More flights under this callsign
Pilot: Brady L. (24952)
Aircraft: BOEING 737-900
(B739)
More flights by this aircraft type
Origin: KTPA Tampa Intl
United States
Destination: KATL Hartsfield-Jackson Atlanta
United States
More flights between these airports :: More routes between these airports
Route: BAYPO7 CAMJO AMG LAIRI LARZZ SITTH2
File this flight plan on PilotEdge
Remarks: RMK / SIMBRIEF
Altitude:
(Current/Filed)
34,000ft
Speed:
(Current/Filed)
464kts
Departed: 09-Jun-19 03:55 PM
Arrived: 09-Jun-19 05:02 PM
Distance/Time
Traveled:
354nm/1:07
Distance/Time
To Go:
Arrived

Flight Plot

Page will automatically refresh every two minutes.

Flight plan parsing failed; only flown route is shown


Map Options




Map Legend


Flown Route
Filed Route
Departure Airport
Arrival Airport
Navaid (VOR, NDB)
Fix

Horizontal Profiles

Position Reports

Time Latitude Longitude Heading Altitude Ground
Speed
09-Jun-19 15:22 27.981261 -82.538582 165 21ft 0kts
09-Jun-19 15:23 27.981261 -82.538582 165 21ft 0kts
09-Jun-19 15:25 27.981261 -82.538582 165 21ft 0kts
09-Jun-19 15:25 27.981261 -82.538582 165 21ft 0kts
09-Jun-19 15:26 27.981261 -82.538582 165 21ft 0kts
09-Jun-19 15:27 27.981261 -82.538582 165 21ft 0kts
09-Jun-19 15:28 27.981261 -82.538582 165 21ft 0kts
09-Jun-19 15:29 27.981261 -82.538582 165 21ft 0kts
09-Jun-19 15:30 27.981261 -82.538582 165 21ft 0kts
09-Jun-19 15:31 27.981261 -82.538582 165 21ft 0kts
09-Jun-19 15:32 27.981261 -82.538582 165 21ft 0kts
09-Jun-19 15:33 27.981261 -82.538582 165 21ft 0kts
09-Jun-19 15:34 27.981261 -82.538582 165 21ft 0kts
09-Jun-19 15:35 27.981261 -82.538582 165 21ft 0kts
09-Jun-19 15:36 27.981261 -82.538582 165 21ft 0kts
09-Jun-19 15:37 27.981261 -82.538582 165 21ft 0kts
09-Jun-19 15:38 27.981261 -82.538582 165 21ft 0kts
09-Jun-19 15:39 27.981261 -82.538582 165 21ft 0kts
09-Jun-19 15:40 27.981261 -82.538582 165 21ft 0kts
09-Jun-19 15:41 27.981261 -82.538582 165 21ft 0kts
09-Jun-19 15:42 27.981261 -82.538582 165 21ft 0kts
09-Jun-19 15:43 27.981261 -82.538582 165 21ft 0kts
09-Jun-19 15:44 27.981261 -82.538582 165 21ft 0kts
09-Jun-19 15:45 27.981261 -82.538582 165 21ft 0kts
09-Jun-19 15:46 27.981261 -82.538582 165 21ft 0kts
09-Jun-19 15:47 27.981535 -82.538890 133 21ft 2kts
09-Jun-19 15:48 27.981981 -82.539055 226 21ft 1kts
09-Jun-19 15:49 27.982044 -82.538736 269 21ft 0kts
09-Jun-19 15:50 27.982044 -82.538736 269 21ft 0kts
09-Jun-19 15:51 27.982879 -82.539627 355 21ft 13kts
09-Jun-19 15:52 27.988828 -82.540254 359 17ft 40kts
09-Jun-19 15:53 27.991822 -82.541367 181 18ft 0kts
09-Jun-19 15:54 27.967477 -82.541409 176 623ft 196kts
09-Jun-19 15:55 27.917497 -82.549410 216 4596ft 180kts
09-Jun-19 15:56 27.922421 -82.600936 328 7534ft 208kts
09-Jun-19 15:57 27.982518 -82.600831 0 10369ft 209kts
09-Jun-19 15:58 28.040963 -82.595606 355 12544ft 219kts
09-Jun-19 15:59 28.108923 -82.591614 2 13891ft 271kts
09-Jun-19 16:00 28.189749 -82.578255 4 15991ft 311kts
09-Jun-19 16:01 28.283133 -82.579724 354 18248ft 363kts
09-Jun-19 16:02 28.385881 -82.582871 356 21679ft 377kts
09-Jun-19 16:03 28.492880 -82.585480 357 24657ft 394kts
09-Jun-19 16:04 28.604780 -82.588247 357 27280ft 411kts
09-Jun-19 16:05 28.720887 -82.596456 352 29623ft 428kts
09-Jun-19 16:06 28.840013 -82.613489 352 32105ft 433kts
09-Jun-19 16:07 28.959937 -82.630276 352 33988ft 442kts
09-Jun-19 16:08 29.083907 -82.647552 353 33995ft 463kts
09-Jun-19 16:09 29.214096 -82.665811 351 34017ft 469kts
09-Jun-19 16:10 29.343810 -82.684071 351 34041ft 469kts
09-Jun-19 16:11 29.473813 -82.696089 2 34031ft 469kts
09-Jun-19 16:12 29.604278 -82.693252 359 34040ft 470kts
09-Jun-19 16:13 29.734827 -82.692528 359 34041ft 470kts
09-Jun-19 16:14 29.865469 -82.691708 359 34022ft 470kts
09-Jun-19 16:15 29.979408 -82.690991 359 34005ft 470kts
09-Jun-19 16:16 30.110462 -82.690180 359 34003ft 470kts
09-Jun-19 16:17 30.241283 -82.689362 359 34001ft 470kts
09-Jun-19 16:18 30.317879 -82.688894 359 34002ft 465kts
09-Jun-19 16:27 31.467830 -82.522688 0 34006ft 466kts
09-Jun-19 16:28 31.592982 -82.554856 332 34003ft 462kts
09-Jun-19 16:29 31.701819 -82.635748 324 34008ft 460kts
09-Jun-19 16:30 31.808545 -82.719421 324 34006ft 460kts
09-Jun-19 16:31 31.915041 -82.803047 324 34002ft 460kts
09-Jun-19 16:32 32.021506 -82.886846 324 34008ft 461kts
09-Jun-19 16:33 32.128953 -82.971640 323 34010ft 462kts
09-Jun-19 16:34 32.236094 -83.056428 323 34016ft 462kts
09-Jun-19 16:35 32.342856 -83.141156 323 34016ft 462kts
09-Jun-19 16:36 32.449458 -83.225987 323 34014ft 455kts
09-Jun-19 16:37 32.554190 -83.309581 323 34015ft 456kts
09-Jun-19 16:38 32.659288 -83.393712 323 34006ft 455kts
09-Jun-19 16:39 32.764565 -83.478230 323 33949ft 457kts
09-Jun-19 16:40 32.871589 -83.564422 323 30068ft 477kts
09-Jun-19 16:41 32.982515 -83.653978 323 25547ft 483kts
09-Jun-19 16:42 33.089461 -83.740483 324 23456ft 426kts
09-Jun-19 16:43 33.182631 -83.816086 323 21716ft 392kts
09-Jun-19 16:44 33.259861 -83.903229 313 19438ft 377kts
09-Jun-19 16:45 33.333309 -83.990234 314 17230ft 365kts
09-Jun-19 16:46 33.402510 -84.077423 308 15087ft 353kts
09-Jun-19 16:47 33.463343 -84.167226 308 13054ft 343kts
09-Jun-19 16:48 33.521885 -84.255874 299 11631ft 335kts
09-Jun-19 16:49 33.536510 -84.360846 269 10355ft 305kts
09-Jun-19 16:50 33.536562 -84.458157 269 9364ft 284kts
09-Jun-19 16:51 33.536585 -84.552043 269 8115ft 278kts
09-Jun-19 16:52 33.536474 -84.643911 269 6947ft 272kts
09-Jun-19 16:53 33.536356 -84.734032 269 5818ft 267kts
09-Jun-19 16:54 33.561093 -84.813545 322 5018ft 268kts
09-Jun-19 16:55 33.633156 -84.824462 24 5005ft 273kts
09-Jun-19 16:56 33.674639 -84.753354 87 4954ft 268kts
09-Jun-19 16:57 33.660203 -84.669221 105 4190ft 255kts
09-Jun-19 16:58 33.633147 -84.593942 93 3254ft 247kts
09-Jun-19 16:59 33.631462 -84.515153 95 2013ft 232kts
09-Jun-19 17:00 33.631791 -84.442034 91 1021ft 182kts
09-Jun-19 17:01 33.631762 -84.421524 89 988ft 38kts
09-Jun-19 17:02 33.633187 -84.419421 330 979ft 0kts
09-Jun-19 17:03 33.634136 -84.420081 328 982ft 14kts
09-Jun-19 17:04 33.636340 -84.422669 300 989ft 20kts
09-Jun-19 17:05 33.636643 -84.430920 269 1008ft 17kts
09-Jun-19 17:06 33.636634 -84.438313 269 1014ft 16kts
09-Jun-19 17:07 33.638348 -84.440336 52 1018ft 7kts
09-Jun-19 17:08 33.638455 -84.439674 91 1017ft 0kts
09-Jun-19 17:09 33.638455 -84.439674 91 1017ft 0kts

Navigation Log

Ident Type
Flight plan parsing failed, navigation log unavailable